createdAt,value
2019-03-28T00:02:16.928Z,12.10
2019-03-28T00:04:46.387Z,12.10
2019-03-28T00:07:14.820Z,12.10
2019-03-28T00:09:43.455Z,12.10
2019-03-28T00:12:11.955Z,12.10
2019-03-28T00:14:40.415Z,12.00
2019-03-28T00:17:08.979Z,12.00
2019-03-28T00:19:37.441Z,12.00
2019-03-28T00:22:06.251Z,12.00
2019-03-28T00:24:42.119Z,12.00
2019-03-28T00:27:10.685Z,12.00
2019-03-28T00:29:39.140Z,12.00
2019-03-28T00:32:07.591Z,12.10
2019-03-28T00:34:36.025Z,12.00
2019-03-28T00:37:07.455Z,12.00
2019-03-28T00:39:34.647Z,12.00
2019-03-28T00:42:03.221Z,11.90
2019-03-28T00:44:31.671Z,11.90
2019-03-28T00:47:00.168Z,11.90
2019-03-28T00:49:28.680Z,11.90
2019-03-28T00:51:57.112Z,11.90
2019-03-28T00:54:25.636Z,11.80
2019-03-28T00:56:54.057Z,11.80
2019-03-28T00:59:22.479Z,11.80
2019-03-28T01:01:50.988Z,11.80
2019-03-28T01:04:19.441Z,11.80
2019-03-28T01:06:47.864Z,11.80
2019-03-28T01:09:16.334Z,11.80
2019-03-28T01:11:44.782Z,11.80
2019-03-28T01:14:13.203Z,11.80
2019-03-28T01:16:41.658Z,11.80
2019-03-28T01:19:10.162Z,11.80
2019-03-28T01:21:38.859Z,11.80
2019-03-28T01:24:07.324Z,11.90
2019-03-28T01:26:35.769Z,11.90
2019-03-28T01:29:04.183Z,11.90
2019-03-28T01:31:32.639Z,11.90
2019-03-28T01:34:01.139Z,11.90
2019-03-28T01:36:29.589Z,11.90
2019-03-28T01:38:58.023Z,11.90
2019-03-28T01:41:26.451Z,11.90
2019-03-28T01:43:54.914Z,11.80
2019-03-28T01:46:23.367Z,11.80
2019-03-28T01:48:51.850Z,11.70
2019-03-28T01:51:20.307Z,11.70
2019-03-28T01:53:48.736Z,11.70
2019-03-28T01:56:17.189Z,11.70
2019-03-28T01:58:45.614Z,11.70
2019-03-28T02:01:14.155Z,11.70
2019-03-28T02:03:42.667Z,11.70
2019-03-28T02:06:11.111Z,11.60
2019-03-28T02:08:39.531Z,11.60
2019-03-28T02:11:08.084Z,11.60
2019-03-28T02:13:36.532Z,11.50
2019-03-28T02:16:04.951Z,11.50
2019-03-28T02:18:33.419Z,11.50
2019-03-28T02:21:01.849Z,11.50
2019-03-28T02:23:30.286Z,11.50
2019-03-28T02:25:58.750Z,11.50
2019-03-28T02:28:27.179Z,11.50
2019-03-28T02:30:55.616Z,11.50
2019-03-28T02:33:24.103Z,11.50
2019-03-28T02:35:52.567Z,11.50
2019-03-28T02:38:21.018Z,11.50
2019-03-28T02:40:49.446Z,11.50
2019-03-28T02:43:17.873Z,11.50
2019-03-28T02:45:46.339Z,11.50
2019-03-28T02:48:34.107Z,11.50
2019-03-28T02:51:03.740Z,11.50
2019-03-28T02:53:32.587Z,11.50
2019-03-28T02:56:01.032Z,11.50
2019-03-28T02:58:29.931Z,11.50
2019-03-28T03:00:58.386Z,11.50
2019-03-28T03:03:26.838Z,11.40
2019-03-28T03:05:55.298Z,11.40
2019-03-28T03:08:24.213Z,11.40
2019-03-28T03:10:53.180Z,11.40
2019-03-28T03:13:21.615Z,11.30
2019-03-28T03:15:50.040Z,11.30
2019-03-28T03:18:21.351Z,11.30
2019-03-28T03:20:48.648Z,11.30
2019-03-28T03:23:17.095Z,11.30
2019-03-28T03:25:45.571Z,11.30
2019-03-28T03:28:14.047Z,11.30
2019-03-28T03:30:42.484Z,11.30
2019-03-28T03:33:30.369Z,11.30
2019-03-28T03:35:58.784Z,11.20
2019-03-28T03:38:27.216Z,11.20
2019-03-28T03:40:55.674Z,11.20
2019-03-28T03:43:24.316Z,11.20
2019-03-28T03:45:52.756Z,11.20
2019-03-28T03:48:21.279Z,11.10
2019-03-28T03:50:49.776Z,11.10
2019-03-28T03:53:18.296Z,11.10
2019-03-28T03:55:46.848Z,11.10
2019-03-28T03:58:16.992Z,11.20
2019-03-28T04:00:45.436Z,11.10
2019-03-28T04:03:13.891Z,11.10
2019-03-28T04:05:42.341Z,11.10
2019-03-28T04:08:10.770Z,11.00
2019-03-28T04:10:39.547Z,11.10
2019-03-28T04:13:08.009Z,11.00
2019-03-28T04:15:37.923Z,11.00
2019-03-28T04:18:06.715Z,11.00
2019-03-28T04:20:35.158Z,11.00
2019-03-28T04:23:04.040Z,11.00
2019-03-28T04:25:32.809Z,11.00
2019-03-28T04:28:01.278Z,11.00
2019-03-28T04:30:29.706Z,11.00
2019-03-28T04:32:58.152Z,10.90
2019-03-28T04:35:26.631Z,10.90
2019-03-28T04:37:55.068Z,10.90
2019-03-28T04:40:23.523Z,10.90
2019-03-28T04:42:51.952Z,10.90
2019-03-28T04:45:20.399Z,11.00
2019-03-28T04:47:48.859Z,10.90
2019-03-28T04:50:36.653Z,11.00
2019-03-28T04:53:05.104Z,11.00
2019-03-28T04:55:33.549Z,11.00
2019-03-28T04:58:01.982Z,11.00
2019-03-28T05:00:30.426Z,11.10
2019-03-28T05:02:58.866Z,11.10
2019-03-28T05:05:27.319Z,11.10
2019-03-28T05:07:55.739Z,11.10
2019-03-28T05:10:24.200Z,11.00
2019-03-28T05:12:52.687Z,11.00
2019-03-28T05:15:21.151Z,11.00
2019-03-28T05:17:49.581Z,11.00
2019-03-28T05:20:18.007Z,11.00
2019-03-28T05:22:46.458Z,11.00
2019-03-28T05:25:15.080Z,11.00
2019-03-28T05:27:43.529Z,11.00
2019-03-28T05:30:13.158Z,11.10
2019-03-28T05:32:41.589Z,11.10
2019-03-28T05:35:10.485Z,11.10
2019-03-28T05:37:38.911Z,11.10
2019-03-28T05:40:07.912Z,11.10
2019-03-28T05:42:36.340Z,11.10
2019-03-28T05:45:06.241Z,11.10
2019-03-28T05:47:34.715Z,11.10
2019-03-28T05:50:03.418Z,11.10
2019-03-28T05:52:31.877Z,11.10
2019-03-28T05:55:00.724Z,11.10
2019-03-28T05:57:29.148Z,11.10
2019-03-28T05:59:57.575Z,11.10
2019-03-28T06:02:26.099Z,11.10
2019-03-28T06:04:54.619Z,11.10
2019-03-28T06:07:24.372Z,11.10
2019-03-28T06:09:52.808Z,11.10
2019-03-28T06:12:21.272Z,11.10
2019-03-28T06:14:49.700Z,11.20
2019-03-28T06:17:18.121Z,11.20
2019-03-28T06:19:46.716Z,11.30
2019-03-28T06:22:15.144Z,11.30
2019-03-28T06:24:43.746Z,11.30
2019-03-28T06:27:12.328Z,11.40
2019-03-28T06:29:40.775Z,11.40
2019-03-28T06:32:09.212Z,11.40
2019-03-28T06:34:37.668Z,11.40
2019-03-28T06:37:06.519Z,11.40
2019-03-28T06:39:36.582Z,11.40
2019-03-28T06:42:05.180Z,11.50
2019-03-28T06:44:33.627Z,11.50
2019-03-28T06:47:02.107Z,11.50
2019-03-28T06:49:30.645Z,11.50
2019-03-28T06:51:59.069Z,11.50
2019-03-28T06:54:27.540Z,11.60
2019-03-28T06:56:55.992Z,11.50
2019-03-28T06:59:36.516Z,11.50
2019-03-28T07:01:54.599Z,11.50
2019-03-28T07:04:23.059Z,11.60
2019-03-28T07:06:51.534Z,11.60
2019-03-28T07:09:20.011Z,11.70
2019-03-28T07:11:48.468Z,11.70
2019-03-28T07:14:16.937Z,11.80
2019-03-28T07:16:45.478Z,11.80
2019-03-28T07:19:13.984Z,11.80
2019-03-28T07:21:44.329Z,11.70
2019-03-28T07:24:13.008Z,11.70
2019-03-28T07:26:41.495Z,11.70
2019-03-28T07:29:09.950Z,11.80
2019-03-28T07:31:38.446Z,11.80
2019-03-28T07:34:06.903Z,11.80
2019-03-28T07:36:35.354Z,11.80
2019-03-28T07:39:05.404Z,11.90
2019-03-28T07:41:33.835Z,12.00
2019-03-28T07:44:02.379Z,12.10
2019-03-28T07:46:30.795Z,12.20
2019-03-28T07:48:59.253Z,12.30
2019-03-28T07:51:27.883Z,12.50
2019-03-28T07:53:56.636Z,12.50
2019-03-28T07:56:25.093Z,12.70
2019-03-28T07:58:53.568Z,12.80
2019-03-28T08:01:22.128Z,12.90
2019-03-28T08:03:57.747Z,13.00
2019-03-28T08:06:26.200Z,13.00
2019-03-28T08:08:54.628Z,13.10
2019-03-28T08:11:23.121Z,13.10
2019-03-28T08:13:51.612Z,13.30
2019-03-28T08:16:20.061Z,13.40
2019-03-28T08:18:48.491Z,13.50
2019-03-28T08:21:16.967Z,13.50
2019-03-28T08:23:45.491Z,13.50
2019-03-28T08:26:33.284Z,13.60
2019-03-28T08:29:01.776Z,13.70
2019-03-28T08:31:30.299Z,13.60
2019-03-28T08:34:18.713Z,13.60
2019-03-28T08:36:47.939Z,13.70
2019-03-28T08:39:17.331Z,13.90
2019-03-28T08:41:48.557Z,13.90
2019-03-28T08:44:15.962Z,14.00
2019-03-28T08:46:44.495Z,14.10
2019-03-28T08:49:12.949Z,14.10
2019-03-28T08:51:41.387Z,14.10
2019-03-28T08:54:09.844Z,14.30
2019-03-28T08:56:38.305Z,14.40
2019-03-28T08:59:06.945Z,14.50
2019-03-28T09:01:54.869Z,14.50
2019-03-28T09:04:23.334Z,14.60
2019-03-28T09:06:51.816Z,14.60
2019-03-28T09:09:21.267Z,14.60
2019-03-28T09:11:50.154Z,14.70
2019-03-28T09:14:18.593Z,14.80
2019-03-28T09:16:47.116Z,14.90
2019-03-28T09:19:15.615Z,14.90
2019-03-28T09:21:44.039Z,15.00
2019-03-28T09:24:12.516Z,15.20
2019-03-28T09:26:40.949Z,15.30
2019-03-28T09:29:09.433Z,15.30
2019-03-28T09:31:37.875Z,15.50
2019-03-28T09:34:06.312Z,15.60
2019-03-28T09:36:34.753Z,15.60
2019-03-28T09:39:04.618Z,15.80
2019-03-28T09:41:33.081Z,15.90
2019-03-28T09:44:01.520Z,16.00
2019-03-28T09:46:30.019Z,16.00
2019-03-28T09:48:58.481Z,15.90
2019-03-28T09:51:26.965Z,15.90
2019-03-28T09:53:55.429Z,16.00
2019-03-28T09:56:23.856Z,16.20
2019-03-28T09:58:52.312Z,16.20
2019-03-28T10:01:20.735Z,16.30
2019-03-28T10:03:49.277Z,16.30
2019-03-28T10:06:17.858Z,16.20
2019-03-28T10:08:46.289Z,16.20
2019-03-28T10:11:14.791Z,16.20
2019-03-28T10:13:43.249Z,16.20
2019-03-28T10:16:11.680Z,16.10
2019-03-28T10:18:40.124Z,16.30
2019-03-28T10:21:08.579Z,16.40
2019-03-28T10:23:39.744Z,16.60
2019-03-28T10:26:07.192Z,16.60
2019-03-28T10:28:35.647Z,16.50
2019-03-28T10:31:15.766Z,16.50
2019-03-28T10:33:34.329Z,16.50
2019-03-28T10:36:02.944Z,16.60
2019-03-28T10:38:31.395Z,16.60
2019-03-28T10:40:59.854Z,16.80
2019-03-28T10:43:28.318Z,16.80
2019-03-28T10:45:56.731Z,16.70
2019-03-28T10:48:25.201Z,16.70
2019-03-28T10:50:53.611Z,16.60
2019-03-28T10:53:22.047Z,16.50
2019-03-28T10:55:50.493Z,16.40
2019-03-28T10:58:19.676Z,16.40
2019-03-28T11:00:48.459Z,16.30
2019-03-28T11:03:16.911Z,16.20
2019-03-28T11:05:45.366Z,16.00
2019-03-28T11:08:13.894Z,15.90
2019-03-28T11:10:42.371Z,16.00
2019-03-28T11:13:10.800Z,16.30
2019-03-28T11:15:39.247Z,16.60
2019-03-28T11:18:07.755Z,17.00
2019-03-28T11:20:39.857Z,17.20
2019-03-28T11:23:07.258Z,17.50
2019-03-28T11:25:35.979Z,17.60
2019-03-28T11:28:04.415Z,17.90
2019-03-28T11:30:33.005Z,18.20
2019-03-28T11:33:01.457Z,18.50
2019-03-28T11:35:30.007Z,18.70
2019-03-28T11:37:58.428Z,18.80
2019-03-28T11:40:26.894Z,18.70
2019-03-28T11:42:55.321Z,18.70
2019-03-28T11:45:26.934Z,18.60
2019-03-28T11:47:53.996Z,18.50
2019-03-28T11:50:22.435Z,18.30
2019-03-28T11:52:50.884Z,18.10
2019-03-28T11:55:19.344Z,17.70
2019-03-28T11:57:47.800Z,17.50
2019-03-28T12:00:18.041Z,17.30
2019-03-28T12:02:46.469Z,17.20
2019-03-28T12:05:15.310Z,17.00
2019-03-28T12:07:43.809Z,16.80
2019-03-28T12:10:12.700Z,16.60
2019-03-28T12:12:41.200Z,16.50
2019-03-28T12:15:10.793Z,16.40
2019-03-28T12:17:39.263Z,16.30
2019-03-28T12:20:09.261Z,16.20
2019-03-28T12:22:37.776Z,16.20
2019-03-28T12:25:07.258Z,16.10
2019-03-28T12:27:35.796Z,16.00
2019-03-28T12:30:07.728Z,16.00
2019-03-28T12:32:36.447Z,15.90
2019-03-28T12:35:07.009Z,15.80
2019-03-28T12:37:36.699Z,15.80
2019-03-28T12:40:08.257Z,15.80
2019-03-28T12:42:36.843Z,15.70
2019-03-28T12:45:08.341Z,15.60
2019-03-28T12:47:42.734Z,15.60
2019-03-28T12:50:09.776Z,15.50
2019-03-28T12:52:38.439Z,15.50
2019-03-28T12:55:08.205Z,15.40
2019-03-28T12:57:36.648Z,15.50
2019-03-28T13:00:10.149Z,15.50
2019-03-28T13:02:38.793Z,15.50
2019-03-28T13:05:09.517Z,15.60
2019-03-28T13:07:38.127Z,15.70
2019-03-28T13:10:08.131Z,15.60
2019-03-28T13:12:37.718Z,15.60
2019-03-28T13:15:07.149Z,15.60
2019-03-28T13:17:35.578Z,15.70
2019-03-28T13:20:06.524Z,15.70
2019-03-28T13:22:34.981Z,15.80
2019-03-28T13:25:04.351Z,15.80
2019-03-28T13:27:34.637Z,15.90
2019-03-28T13:30:03.420Z,16.10
2019-03-28T13:32:51.185Z,16.30
2019-03-28T13:35:19.637Z,16.40
2019-03-28T13:37:48.077Z,16.40
2019-03-28T13:40:16.747Z,16.50
2019-03-28T13:42:45.178Z,16.60
2019-03-28T13:45:16.714Z,16.80
2019-03-28T13:47:45.126Z,16.90
2019-03-28T13:50:14.620Z,17.20
2019-03-28T13:52:43.085Z,17.40
2019-03-28T13:55:11.774Z,17.50
2019-03-28T13:57:43.248Z,17.50
2019-03-28T14:00:11.435Z,17.60
2019-03-28T14:02:40.163Z,17.70
2019-03-28T14:05:09.123Z,17.80
2019-03-28T14:07:37.571Z,18.00
2019-03-28T14:10:07.908Z,18.20
2019-03-28T14:12:36.366Z,18.40
2019-03-28T14:15:06.931Z,18.60
2019-03-28T14:17:35.440Z,18.90
2019-03-28T14:20:05.613Z,19.20
2019-03-28T14:22:34.223Z,19.60
2019-03-28T14:25:02.680Z,20.30
2019-03-28T14:27:31.172Z,20.90
2019-03-28T14:29:59.619Z,21.20
2019-03-28T14:32:28.636Z,21.30
2019-03-28T14:34:57.388Z,21.40
2019-03-28T14:37:25.812Z,21.50
2019-03-28T14:39:54.249Z,21.60
2019-03-28T14:42:22.697Z,21.20
2019-03-28T14:44:51.331Z,20.90
2019-03-28T14:47:19.765Z,20.70
2019-03-28T14:49:48.371Z,20.50
2019-03-28T14:52:17.002Z,20.30
2019-03-28T14:54:45.492Z,20.00
2019-03-28T14:57:15.383Z,19.90
2019-03-28T14:59:44.576Z,19.80
2019-03-28T15:02:13.066Z,19.80
2019-03-28T15:04:41.523Z,19.70
2019-03-28T15:07:10.115Z,19.50
2019-03-28T15:09:38.546Z,19.30
2019-03-28T15:12:07.066Z,19.20
2019-03-28T15:14:35.488Z,19.00
2019-03-28T15:17:04.073Z,18.90
2019-03-28T15:19:33.223Z,18.80
2019-03-28T15:22:02.086Z,18.60
2019-03-28T15:24:31.558Z,18.40
2019-03-28T15:27:01.093Z,18.30
2019-03-28T15:29:29.735Z,18.20
2019-03-28T15:31:58.182Z,18.20
2019-03-28T15:34:26.618Z,18.10
2019-03-28T15:36:55.072Z,17.90
2019-03-28T15:39:42.855Z,17.80
2019-03-28T15:42:11.299Z,17.80
2019-03-28T15:44:39.863Z,17.70
2019-03-28T15:47:08.314Z,17.50
2019-03-28T15:49:36.735Z,17.40
2019-03-28T15:52:05.471Z,17.40
2019-03-28T15:54:34.072Z,17.20
2019-03-28T15:57:02.749Z,17.20
2019-03-28T15:59:31.240Z,17.10
2019-03-28T16:02:00.074Z,17.10
2019-03-28T16:04:28.920Z,17.00
2019-03-28T16:06:57.408Z,16.90
2019-03-28T16:09:25.852Z,16.80
2019-03-28T16:12:02.641Z,16.70
2019-03-28T16:14:24.468Z,16.70
2019-03-28T16:16:52.891Z,16.70
2019-03-28T16:19:21.352Z,16.70
2019-03-28T16:21:49.780Z,16.70
2019-03-28T16:24:18.212Z,16.70
2019-03-28T16:26:46.651Z,16.70
2019-03-28T16:29:15.119Z,16.70
2019-03-28T16:31:43.641Z,16.70
2019-03-28T16:34:12.069Z,16.70
2019-03-28T16:36:40.483Z,16.70
2019-03-28T16:39:08.955Z,16.70
2019-03-28T16:41:37.676Z,16.70
2019-03-28T16:44:06.136Z,16.70
2019-03-28T16:46:35.025Z,16.70
2019-03-28T16:49:04.056Z,16.70
2019-03-28T16:51:32.660Z,16.60
2019-03-28T16:54:01.658Z,16.60
2019-03-28T16:56:30.329Z,16.50
2019-03-28T16:58:58.878Z,16.40
2019-03-28T17:01:27.339Z,16.40
2019-03-28T17:03:55.799Z,16.40
2019-03-28T17:06:24.268Z,16.30
2019-03-28T17:08:53.256Z,16.30
2019-03-28T17:11:21.684Z,16.20
2019-03-28T17:13:50.141Z,16.10
2019-03-28T17:16:18.657Z,16.10
2019-03-28T17:18:47.124Z,16.10
2019-03-28T17:21:15.675Z,16.00
2019-03-28T17:26:26.687Z,15.90
2019-03-28T17:28:55.149Z,15.80
2019-03-28T17:31:23.659Z,15.70
2019-03-28T17:33:52.162Z,15.70
2019-03-28T17:36:20.621Z,15.60
2019-03-28T17:38:49.727Z,15.50
2019-03-28T17:41:18.245Z,15.50
2019-03-28T17:43:46.829Z,15.30
2019-03-28T17:46:15.328Z,15.30
2019-03-28T17:48:43.771Z,15.20
2019-03-28T17:51:12.195Z,15.30
2019-03-28T17:53:40.770Z,15.20
2019-03-28T17:56:09.319Z,15.20
2019-03-28T17:58:37.792Z,15.10
2019-03-28T18:01:06.697Z,15.10
2019-03-28T18:03:35.144Z,15.10
2019-03-28T18:06:03.572Z,15.00
2019-03-28T18:08:32.101Z,15.00
2019-03-28T18:11:00.646Z,14.90
2019-03-28T18:13:29.146Z,14.80
2019-03-28T18:15:57.597Z,14.70
2019-03-28T18:18:26.025Z,14.70
2019-03-28T18:20:54.475Z,14.60
2019-03-28T18:23:23.684Z,14.60
2019-03-28T18:25:52.253Z,14.60
2019-03-28T18:28:20.700Z,14.50
2019-03-28T18:30:49.229Z,14.50
2019-03-28T18:33:17.679Z,14.40
2019-03-28T18:35:46.212Z,14.30
2019-03-28T18:38:14.757Z,14.20
2019-03-28T18:40:43.184Z,14.10
2019-03-28T18:43:11.631Z,14.00
2019-03-28T18:45:40.079Z,13.90
2019-03-28T18:48:09.137Z,13.80
2019-03-28T18:50:40.977Z,13.60
2019-03-28T18:53:08.303Z,13.50
2019-03-28T18:55:36.809Z,13.30
2019-03-28T18:58:05.756Z,13.30
2019-03-28T19:00:34.522Z,13.10
2019-03-28T19:03:03.016Z,13.00
2019-03-28T19:05:31.520Z,12.90
2019-03-28T19:07:59.931Z,12.80
2019-03-28T19:10:28.455Z,12.80
2019-03-28T19:12:56.921Z,12.70
2019-03-28T19:15:25.343Z,12.70
2019-03-28T19:17:53.793Z,12.60
2019-03-28T19:20:22.265Z,12.50
2019-03-28T19:22:50.688Z,12.50
2019-03-28T19:25:19.216Z,12.50
2019-03-28T19:27:47.733Z,12.50
2019-03-28T19:30:18.164Z,12.50
2019-03-28T19:32:46.625Z,12.50
2019-03-28T19:35:15.076Z,12.50
2019-03-28T19:37:44.891Z,12.50
2019-03-28T19:40:15.438Z,12.40
2019-03-28T19:42:44.093Z,12.40
2019-03-28T19:45:15.987Z,12.30
2019-03-28T19:47:44.416Z,12.30
2019-03-28T19:50:16.116Z,12.30
2019-03-28T19:52:44.626Z,12.20
2019-03-28T19:55:16.138Z,12.20
2019-03-28T19:57:44.606Z,12.10
2019-03-28T20:00:13.354Z,12.10
2019-03-28T20:02:41.880Z,12.10
2019-03-28T20:05:10.924Z,12.00
2019-03-28T20:07:39.544Z,11.90
2019-03-28T20:10:16.268Z,11.90
2019-03-28T20:12:38.994Z,11.80
2019-03-28T20:15:08.513Z,11.70
2019-03-28T20:17:37.113Z,11.70
2019-03-28T20:20:07.495Z,11.60
2019-03-28T20:22:36.323Z,11.60
2019-03-28T20:25:07.333Z,11.50
2019-03-28T20:27:36.008Z,11.50
2019-03-28T20:30:06.835Z,11.40
2019-03-28T20:32:35.305Z,11.40
2019-03-28T20:35:04.871Z,11.30
2019-03-28T20:37:33.444Z,11.30
2019-03-28T20:40:02.069Z,11.20
2019-03-28T20:42:30.847Z,11.20
2019-03-28T20:44:59.645Z,11.10
2019-03-28T20:47:28.373Z,11.10
2019-03-28T20:49:57.088Z,11.10
2019-03-28T20:52:25.539Z,11.00
2019-03-28T20:54:53.978Z,11.00
2019-03-28T20:57:22.839Z,11.00
2019-03-28T20:59:51.313Z,10.90
2019-03-28T21:02:19.767Z,10.90
2019-03-28T21:04:48.369Z,10.80
2019-03-28T21:07:19.688Z,10.80
2019-03-28T21:09:48.605Z,10.80
2019-03-28T21:12:17.735Z,10.70
2019-03-28T21:14:46.519Z,10.70
2019-03-28T21:17:15.107Z,10.70
2019-03-28T21:19:44.787Z,10.60
2019-03-28T21:22:13.347Z,10.60
2019-03-28T21:24:41.799Z,10.60
2019-03-28T21:27:10.218Z,10.60
2019-03-28T21:29:48.336Z,10.60
2019-03-28T21:32:08.895Z,10.50
2019-03-28T21:34:37.347Z,10.50
2019-03-28T21:37:06.587Z,10.40
2019-03-28T21:39:35.391Z,10.40
2019-03-28T21:42:06.970Z,10.40
2019-03-28T21:44:33.983Z,10.30
2019-03-28T21:47:02.431Z,10.30
2019-03-28T21:49:31.114Z,10.30
2019-03-28T21:51:59.606Z,10.30
2019-03-28T21:54:28.063Z,10.20
2019-03-28T21:56:56.583Z,10.20
2019-03-28T21:59:25.007Z,10.20
2019-03-28T22:01:53.495Z,10.20
2019-03-28T22:04:21.984Z,10.20
2019-03-28T22:06:50.448Z,10.20
2019-03-28T22:09:18.871Z,10.10
2019-03-28T22:11:47.310Z,10.10
2019-03-28T22:14:15.726Z,10.10
2019-03-28T22:16:44.175Z,10.10
2019-03-28T22:19:12.630Z,10.10
2019-03-28T22:21:41.177Z,10.00
2019-03-28T22:24:09.811Z,10.00
2019-03-28T22:26:38.384Z,9.90
2019-03-28T22:29:06.839Z,9.90
2019-03-28T22:31:35.255Z,9.90
2019-03-28T22:34:03.755Z,9.80
2019-03-28T22:36:32.180Z,9.80
2019-03-28T22:39:00.631Z,9.70
2019-03-28T22:41:29.078Z,9.70
2019-03-28T22:43:58.263Z,9.60
2019-03-28T22:46:27.791Z,9.60
2019-03-28T22:48:56.488Z,9.60
2019-03-28T22:51:25.347Z,9.50
2019-03-28T22:53:53.753Z,9.50
2019-03-28T22:56:23.499Z,9.40
2019-03-28T22:58:52.097Z,9.40
2019-03-28T23:01:20.674Z,9.40
2019-03-28T23:03:49.199Z,9.40
2019-03-28T23:06:17.628Z,9.40
2019-03-28T23:08:46.054Z,9.30
2019-03-28T23:11:14.587Z,9.30
2019-03-28T23:13:43.103Z,9.30
2019-03-28T23:16:11.704Z,9.30
2019-03-28T23:18:40.208Z,9.30
2019-03-28T23:21:08.767Z,9.20
2019-03-28T23:23:37.205Z,9.20
2019-03-28T23:26:05.790Z,9.20
2019-03-28T23:28:34.214Z,9.20
2019-03-28T23:31:02.641Z,9.20
2019-03-28T23:33:31.122Z,9.20
2019-03-28T23:35:59.603Z,9.20
2019-03-28T23:38:28.163Z,9.20
2019-03-28T23:40:56.594Z,9.20
2019-03-28T23:43:25.168Z,9.20
2019-03-28T23:45:53.625Z,9.20
2019-03-28T23:48:22.076Z,9.10
2019-03-28T23:50:50.559Z,9.10
2019-03-28T23:53:19.004Z,9.00
2019-03-28T23:55:47.432Z,9.00
2019-03-28T23:58:15.880Z,9.00
